Portada
METAR-TAF:

METAR-TAF

Aeroports :

Aeroport de La Palma

La Palma, Espanya

latitud: 28-37N, longitud: 017-45W, altitud: 29 m

Observació

L'informe es va fer fa 36 minuts, a les 08:30 UTC
Vent 16 kt del Nord
Temperatura 21°C
Humitat 69%
Pressió 1022 hPa
Visibilitat 10 km o més
Cel ennuvolat a una alçada de 4000 ft

METAR: GCLA 120830Z 01016KT 9999 BKN040 21/15 Q1022

Hora: 09:06 (09:06 UTC)

Pronòstic

L'informe es va fer fa 1 hora i 6 minuts, a les 08:00 UTC
Pronòstic vàlid del 12 a les 09 UTC al 13 a les 09 UTC
Vent 16 kt del Nord/Nord-Est
Visibilitat 10 km o més
Cel ennuvolat a una alçada de 2500 ft
Probabilitat 30% :
Temporalment
l' 12 a les 09 UTC al 12 a les 18 UTC
Cel ennuvolat a una alçada de 1400 ft
pluja

TAF: GCLA 120800Z 1209/1309 02016KT 9999 BKN025 TX24/1214Z TN20/1306Z PROB30 TEMPO 1209/1218 RA BKN014

Observacions i pronòstics meteorològics de més de 4000 aeroports (METAR i TAF).

Les estacions disponibles són els punts grocs i vermells al mapa.

Posi el ratolí al punt desitjat per veure el nom de l'estació.

Feu clic per veure les observacions i els pronòstics meteorològics.

Per canviar el mapa: feu clic els botons verds amb una creu de color negre per apropar; al botó verd amb un guió per allunyar la imatge; o en les fletxes verdes per a mapes adjacents.


METAR-TAF: